American Glory — WDA8860 — position and weather

sailwx.info

Track history (hours):
 
Tides and Currents Weather Stations Pressure Air Temp Water Temp Dewpoint Dewpoint Depression Visibility Wind Speed Wind Dir Waves Ship Positions

American Glory

More information available from US FCC via Universal Licensing System and Coast Guard Vessel Documentation Center.

Last reported at 2014-Jul-08 23:22 UTC. Time now 2014-Jul-25 09:08 UTC.
Position N 42°47' W 070°30'.
Warning: this ship's position is 16 days out of date.

Length 54 m; draft 2.1 m.

Type: Passenger vessel. MMSI: 366858820.

Date/timePositionNaut miles runAvg speedWind from/ knotsBaromVisibWave heightAir tempDewpointWater temp
2014-Jul-08 23:22N 42°47' W 070°30'15 8.1
2014-Jul-08 21:34N 42°34' W 070°39'2 0.2
2014-Jul-08 10:31N 42°37' W 070°39'68 8.1
2014-Jul-08 02:09N 41°29' W 070°50'3 5.3
2014-Jul-08 01:33N 41°26' W 070°47'10 9.8
2014-Jul-08 00:33N 41°29' W 070°34'8 8.1
2014-Jul-07 23:33N 41°27' W 070°24'7 6.8
2014-Jul-07 22:33N 41°26' W 070°15'8 8.3
2014-Jul-07 21:33N 41°20' W 070°07'22 1.8
2014-Jul-07 09:22N 41°29' W 070°34'2 0.2
2014-Jul-07 00:33N 41°27' W 070°36'0 0.0
2014-Jul-06 23:33N 41°27' W 070°36'0 0.0
2014-Jul-06 22:33N 41°27' W 070°36'0 0.0
2014-Jul-06 21:33N 41°27' W 070°36'0 0.0
2014-Jul-06 20:33N 41°27' W 070°36'0 0.0
2014-Jul-06 19:30N 41°27' W 070°36'0 0.0
2014-Jul-06 17:30N 41°27' W 070°36'0 0.0
2014-Jul-06 16:30N 41°27' W 070°36'0 0.0
2014-Jul-06 15:33N 41°27' W 070°36'0 0.0
2014-Jul-06 14:30N 41°27' W 070°36'0 0.0
2014-Jul-06 13:30N 41°27' W 070°36'0 0.0
2014-Jul-06 12:24N 41°27' W 070°36'0 0.0
2014-Jul-06 11:33N 41°27' W 070°36'0 0.0
2014-Jul-06 10:33N 41°27' W 070°36'0 0.0
2014-Jul-06 09:33N 41°27' W 070°36'0 0.0
2014-Jul-06 08:33N 41°27' W 070°36'0 0.0
2014-Jul-06 07:33N 41°27' W 070°36'0 0.0
2014-Jul-06 06:33N 41°27' W 070°36'0 0.0
2014-Jul-06 05:33N 41°27' W 070°36'0 0.0
2014-Jul-06 04:33N 41°27' W 070°36'0 0.0
2014-Jul-06 03:27N 41°27' W 070°36'0 0.0
2014-Jul-06 02:33N 41°27' W 070°36'0 0.0
2014-Jul-06 01:33N 41°27' W 070°36'2 2.3
2014-Jul-06 00:33N 41°29' W 070°36'8 7.7
2014-Jul-05 23:33N 41°27' W 070°46'5 5.1
2014-Jul-05 22:33N 41°30' W 070°51'  
2014-Jul-03 14:33N 41°36' W 070°53'9 9.4
2014-Jul-03 13:33N 41°27' W 070°51'1010.1
2014-Jul-03 12:33N 41°29' W 070°38'3 0.3
2014-Jul-03 04:08N 41°27' W 070°36'0 0.0
2014-Jul-03 03:32N 41°27' W 070°36'0 0.0
2014-Jul-03 02:29N 41°27' W 070°36'0 0.0
2014-Jul-03 01:32N 41°27' W 070°36'0 0.0
2014-Jul-03 00:32N 41°27' W 070°36'0 0.0
2014-Jul-02 23:32N 41°27' W 070°36'0 0.0
2014-Jul-02 22:32N 41°27' W 070°36'0 0.0
2014-Jul-02 21:32N 41°27' W 070°36'0 0.0
2014-Jul-02 08:26N 41°27' W 070°36'0 0.0
2014-Jul-02 07:32N 41°27' W 070°36'0 0.0
2014-Jul-02 06:32N 41°27' W 070°36'0 0.0
2014-Jul-02 05:32N 41°27' W 070°36'0 0.0
2014-Jul-02 04:32N 41°27' W 070°36'0 0.0
2014-Jul-02 03:32N 41°27' W 070°36'0 0.0
2014-Jul-02 02:29N 41°27' W 070°36'0 0.0
2014-Jul-02 01:32N 41°27' W 070°36'0 0.0
2014-Jul-02 00:34N 41°27' W 070°36'2 2.0
2014-Jul-01 23:34N 41°29' W 070°34'9 9.0
2014-Jul-01 22:33N 41°27' W 070°22'1010.1
2014-Jul-01 21:33N 41°23' W 070°10'7 6.7
2014-Jul-01 20:32N 41°17' W 070°05'0 0.0
2014-Jul-01 19:32N 41°17' W 070°05'0 0.0
2014-Jul-01 18:32N 41°17' W 070°05'0 0.0
2014-Jul-01 17:29N 41°17' W 070°05'0 0.0
2014-Jul-01 16:32N 41°17' W 070°05'0 0.0
2014-Jul-01 15:29N 41°17' W 070°05'0 0.0
2014-Jul-01 14:32N 41°17' W 070°05'0 0.0
2014-Jul-01 11:23N 41°17' W 070°05'0 0.2
2014-Jul-01 10:33N 41°17' W 070°05'9 8.5
2014-Jul-01 09:31N 41°25' W 070°12'8 8.6
2014-Jul-01 08:34N 41°27' W 070°22'9 9.0
2014-Jul-01 07:33N 41°29' W 070°34'8 7.9
2014-Jul-01 06:34N 41°27' W 070°44'4 4.2
2014-Jul-01 05:33N 41°30' W 070°49'9 9.3
2014-Jul-01 04:34N 41°38' W 070°42'8 8.4
2014-Jul-01 03:34N 41°45' W 070°36'6 5.9
2014-Jul-01 02:34N 41°48' W 070°29'1010.2
2014-Jul-01 01:33N 41°58' W 070°31'1110.4
2014-Jul-01 00:31N 42°08' W 070°35'25 8.5
2014-Jun-30 21:33N 42°33' W 070°41'2 0.2
2014-Jun-30 10:30N 42°35' W 070°40'6 6.1
2014-Jun-30 09:29N 42°39' W 070°33'7 8.1
2014-Jun-30 08:33N 42°46' W 070°30'8 8.0
2014-Jun-30 07:33N 42°53' W 070°27'  
Track history (hours):
 
Tides and Currents Weather Stations Pressure Air Temp Water Temp Dewpoint Dewpoint Depression Visibility Wind Speed Wind Dir Waves Ship Positions

American Glory

More information available from US FCC via Universal Licensing System and Coast Guard Vessel Documentation Center.

Last reported at 2014-Jul-08 23:22 UTC. Time now 2014-Jul-25 09:08 UTC.
Position N 42°47' W 070°30'.
Warning: this ship's position is 16 days out of date.

Length 54 m; draft 2.1 m.

Type: Passenger vessel. MMSI: 366858820.

Date/timePositionNaut miles runAvg speedWind from/ knotsBaromVisibWave heightAir tempDewpointWater temp
2014-Jul-08 23:22N 42°47' W 070°30'15 8.1
2014-Jul-08 21:34N 42°34' W 070°39'2 0.2
2014-Jul-08 10:31N 42°37' W 070°39'68 8.1
2014-Jul-08 02:09N 41°29' W 070°50'3 5.3
2014-Jul-08 01:33N 41°26' W 070°47'10 9.8
2014-Jul-08 00:33N 41°29' W 070°34'8 8.1
2014-Jul-07 23:33N 41°27' W 070°24'7 6.8
2014-Jul-07 22:33N 41°26' W 070°15'8 8.3
2014-Jul-07 21:33N 41°20' W 070°07'22 1.8
2014-Jul-07 09:22N 41°29' W 070°34'2 0.2
2014-Jul-07 00:33N 41°27' W 070°36'0 0.0
2014-Jul-06 23:33N 41°27' W 070°36'0 0.0
2014-Jul-06 22:33N 41°27' W 070°36'0 0.0
2014-Jul-06 21:33N 41°27' W 070°36'0 0.0
2014-Jul-06 20:33N 41°27' W 070°36'0 0.0
2014-Jul-06 19:30N 41°27' W 070°36'0 0.0
2014-Jul-06 17:30N 41°27' W 070°36'0 0.0
2014-Jul-06 16:30N 41°27' W 070°36'0 0.0
2014-Jul-06 15:33N 41°27' W 070°36'0 0.0
2014-Jul-06 14:30N 41°27' W 070°36'0 0.0
2014-Jul-06 13:30N 41°27' W 070°36'0 0.0
2014-Jul-06 12:24N 41°27' W 070°36'0 0.0
2014-Jul-06 11:33N 41°27' W 070°36'0 0.0
2014-Jul-06 10:33N 41°27' W 070°36'0 0.0
2014-Jul-06 09:33N 41°27' W 070°36'0 0.0
2014-Jul-06 08:33N 41°27' W 070°36'0 0.0
2014-Jul-06 07:33N 41°27' W 070°36'0 0.0
2014-Jul-06 06:33N 41°27' W 070°36'0 0.0
2014-Jul-06 05:33N 41°27' W 070°36'0 0.0
2014-Jul-06 04:33N 41°27' W 070°36'0 0.0
2014-Jul-06 03:27N 41°27' W 070°36'0 0.0
2014-Jul-06 02:33N 41°27' W 070°36'0 0.0
2014-Jul-06 01:33N 41°27' W 070°36'2 2.3
2014-Jul-06 00:33N 41°29' W 070°36'8 7.7
2014-Jul-05 23:33N 41°27' W 070°46'5 5.1
2014-Jul-05 22:33N 41°30' W 070°51'  
2014-Jul-03 14:33N 41°36' W 070°53'9 9.4
2014-Jul-03 13:33N 41°27' W 070°51'1010.1
2014-Jul-03 12:33N 41°29' W 070°38'3 0.3
2014-Jul-03 04:08N 41°27' W 070°36'0 0.0
2014-Jul-03 03:32N 41°27' W 070°36'0 0.0
2014-Jul-03 02:29N 41°27' W 070°36'0 0.0
2014-Jul-03 01:32N 41°27' W 070°36'0 0.0
2014-Jul-03 00:32N 41°27' W 070°36'0 0.0
2014-Jul-02 23:32N 41°27' W 070°36'0 0.0
2014-Jul-02 22:32N 41°27' W 070°36'0 0.0
2014-Jul-02 21:32N 41°27' W 070°36'0 0.0
2014-Jul-02 08:26N 41°27' W 070°36'0 0.0
2014-Jul-02 07:32N 41°27' W 070°36'0 0.0
2014-Jul-02 06:32N 41°27' W 070°36'0 0.0
2014-Jul-02 05:32N 41°27' W 070°36'0 0.0
2014-Jul-02 04:32N 41°27' W 070°36'0 0.0
2014-Jul-02 03:32N 41°27' W 070°36'0 0.0
2014-Jul-02 02:29N 41°27' W 070°36'0 0.0
2014-Jul-02 01:32N 41°27' W 070°36'0 0.0
2014-Jul-02 00:34N 41°27' W 070°36'2 2.0
2014-Jul-01 23:34N 41°29' W 070°34'9 9.0
2014-Jul-01 22:33N 41°27' W 070°22'1010.1
2014-Jul-01 21:33N 41°23' W 070°10'7 6.7
2014-Jul-01 20:32N 41°17' W 070°05'0 0.0
2014-Jul-01 19:32N 41°17' W 070°05'0 0.0
2014-Jul-01 18:32N 41°17' W 070°05'0 0.0
2014-Jul-01 17:29N 41°17' W 070°05'0 0.0
2014-Jul-01 16:32N 41°17' W 070°05'0 0.0
2014-Jul-01 15:29N 41°17' W 070°05'0 0.0
2014-Jul-01 14:32N 41°17' W 070°05'0 0.0
2014-Jul-01 11:23N 41°17' W 070°05'0 0.2
2014-Jul-01 10:33N 41°17' W 070°05'9 8.5
2014-Jul-01 09:31N 41°25' W 070°12'8 8.6
2014-Jul-01 08:34N 41°27' W 070°22'9 9.0
2014-Jul-01 07:33N 41°29' W 070°34'8 7.9
2014-Jul-01 06:34N 41°27' W 070°44'4 4.2
2014-Jul-01 05:33N 41°30' W 070°49'9 9.3
2014-Jul-01 04:34N 41°38' W 070°42'8 8.4
2014-Jul-01 03:34N 41°45' W 070°36'6 5.9
2014-Jul-01 02:34N 41°48' W 070°29'1010.2
2014-Jul-01 01:33N 41°58' W 070°31'1110.4
2014-Jul-01 00:31N 42°08' W 070°35'25 8.5
2014-Jun-30 21:33N 42°33' W 070°41'2 0.2
2014-Jun-30 10:30N 42°35' W 070°40'6 6.1
2014-Jun-30 09:29N 42°39' W 070°33'7 8.1
2014-Jun-30 08:33N 42°46' W 070°30'8 8.0
2014-Jun-30 07:33N 42°53' W 070°27'  

Dump ship's entire track history